createdAt,value
2018-05-08T00:01:53.567Z,3.50
2018-05-08T00:04:21.225Z,3.60
2018-05-08T00:06:48.853Z,4.90
2018-05-08T00:11:43.554Z,4.50
2018-05-08T00:14:11.221Z,4.30
2018-05-08T00:16:38.854Z,3.80
2018-05-08T00:19:06.381Z,4.00
2018-05-08T00:21:34.146Z,4.00
2018-05-08T00:24:01.749Z,3.80
2018-05-08T00:26:29.446Z,4.87
2018-05-08T00:28:57.100Z,4.22
2018-05-08T00:31:24.746Z,4.07
2018-05-08T00:33:52.570Z,3.97
2018-05-08T00:36:20.114Z,4.27
2018-05-08T00:38:47.645Z,3.60
2018-05-08T00:41:15.344Z,3.47
2018-05-08T00:43:43.779Z,4.13
2018-05-08T00:46:11.371Z,3.55
2018-05-08T00:48:39.008Z,3.90
2018-05-08T00:51:06.640Z,4.30
2018-05-08T00:56:01.357Z,3.50
2018-05-08T00:58:28.872Z,3.90
2018-05-08T01:00:56.566Z,3.37
2018-05-08T01:03:24.091Z,3.93
2018-05-08T01:05:51.749Z,3.80
2018-05-08T01:10:46.497Z,4.40
2018-05-08T01:13:14.277Z,4.10
2018-05-08T01:15:42.016Z,4.67
2018-05-08T01:23:04.090Z,4.63
2018-05-08T01:25:31.650Z,4.00
2018-05-08T01:27:59.160Z,3.75
2018-05-08T01:30:26.874Z,4.20
2018-05-08T01:32:54.399Z,4.20
2018-05-08T01:35:21.925Z,3.80
2018-05-08T01:37:49.471Z,3.80
2018-05-08T01:40:17.174Z,3.70
2018-05-08T01:42:44.831Z,4.13
2018-05-08T01:45:12.431Z,4.50
2018-05-08T01:47:39.960Z,4.67
2018-05-08T01:50:07.719Z,4.43
2018-05-08T01:52:35.920Z,5.00
2018-05-08T01:55:03.505Z,5.20
2018-05-08T01:57:31.049Z,4.65
2018-05-08T01:59:58.831Z,4.00
2018-05-08T02:02:26.501Z,3.87
2018-05-08T02:04:54.306Z,4.40
2018-05-08T02:07:22.592Z,4.53
2018-05-08T02:09:50.340Z,4.70
2018-05-08T02:12:17.995Z,4.10
2018-05-08T02:14:46.095Z,4.37
2018-05-08T02:17:14.084Z,4.37
2018-05-08T02:19:41.618Z,4.57
2018-05-08T02:22:09.899Z,4.20
2018-05-08T02:24:37.595Z,4.43
2018-05-08T02:27:05.251Z,4.77
2018-05-08T02:29:32.786Z,4.50
2018-05-08T02:32:00.342Z,4.10
2018-05-08T02:34:27.866Z,4.10
2018-05-08T02:36:55.507Z,4.40
2018-05-08T02:39:23.158Z,4.50
2018-05-08T02:41:50.670Z,5.20
2018-05-08T02:44:18.325Z,5.00
2018-05-08T02:46:46.093Z,4.72
2018-05-08T02:49:13.833Z,4.30
2018-05-08T02:51:41.365Z,5.30
2018-05-08T02:54:08.921Z,4.10
2018-05-08T02:56:36.558Z,4.10
2018-05-08T02:59:04.093Z,4.47
2018-05-08T03:01:31.611Z,3.73
2018-05-08T03:03:59.293Z,4.30
2018-05-08T03:06:26.946Z,4.70
2018-05-08T03:08:54.462Z,4.00
2018-05-08T03:11:22.008Z,4.57
2018-05-08T03:13:49.593Z,3.83
2018-05-08T03:16:17.277Z,3.90
2018-05-08T03:18:45.741Z,4.43
2018-05-08T03:21:13.243Z,4.20
2018-05-08T03:23:40.758Z,4.03
2018-05-08T03:26:08.476Z,4.17
2018-05-08T03:28:36.146Z,4.62
2018-05-08T03:31:03.817Z,4.43
2018-05-08T03:33:31.571Z,4.13
2018-05-08T03:35:59.254Z,4.33
2018-05-08T03:38:26.784Z,5.00
2018-05-08T03:40:54.320Z,4.27
2018-05-08T03:43:21.835Z,4.50
2018-05-08T03:45:49.407Z,3.70
2018-05-08T03:48:17.002Z,4.03
2018-05-08T03:50:44.707Z,3.95
2018-05-08T03:53:12.216Z,4.67
2018-05-08T03:55:39.783Z,3.90
2018-05-08T03:58:07.383Z,4.37
2018-05-08T04:00:46.926Z,5.43
2018-05-08T04:03:26.445Z,4.30
2018-05-08T04:06:00.247Z,4.03
2018-05-08T04:08:33.857Z,4.10
2018-05-08T04:11:01.628Z,4.37
2018-05-08T04:13:29.175Z,3.87
2018-05-08T04:15:56.818Z,4.30
2018-05-08T04:18:25.428Z,4.20
2018-05-08T04:20:52.949Z,4.40
2018-05-08T04:23:20.526Z,4.70
2018-05-08T04:25:48.050Z,3.63
2018-05-08T04:28:15.603Z,4.47
2018-05-08T04:30:43.851Z,3.60
2018-05-08T04:33:11.371Z,4.10
2018-05-08T04:35:38.907Z,3.75
2018-05-08T04:38:07.353Z,4.27
2018-05-08T04:40:35.026Z,4.07
2018-05-08T04:43:02.562Z,4.27
2018-05-08T04:45:30.207Z,4.33
2018-05-08T04:47:57.767Z,5.00
2018-05-08T04:50:25.297Z,4.30
2018-05-08T04:52:52.825Z,3.47
2018-05-08T04:55:20.393Z,3.90
2018-05-08T04:57:48.046Z,3.77
2018-05-08T05:00:15.945Z,3.37
2018-05-08T05:02:43.512Z,4.07
2018-05-08T05:05:11.373Z,3.57
2018-05-08T05:07:38.907Z,5.23
2018-05-08T05:10:06.506Z,4.17
2018-05-08T05:12:34.033Z,3.73
2018-05-08T05:15:01.747Z,4.13
2018-05-08T05:17:29.461Z,3.90
2018-05-08T05:19:57.162Z,3.33
2018-05-08T05:22:24.681Z,3.20
2018-05-08T05:24:52.657Z,4.07
2018-05-08T05:27:20.565Z,3.53
2018-05-08T05:29:48.207Z,3.00
2018-05-08T05:32:15.788Z,3.60
2018-05-08T05:34:43.406Z,2.97
2018-05-08T05:37:11.002Z,3.60
2018-05-08T05:39:38.547Z,3.90
2018-05-08T05:42:06.277Z,3.60
2018-05-08T05:44:34.079Z,3.77
2018-05-08T05:47:02.613Z,3.70
2018-05-08T05:49:30.184Z,3.83
2018-05-08T05:51:57.720Z,3.75
2018-05-08T05:54:25.367Z,3.10
2018-05-08T05:56:52.962Z,3.63
2018-05-08T05:59:20.503Z,3.87
2018-05-08T06:01:48.319Z,4.05
2018-05-08T06:04:15.897Z,3.77
2018-05-08T06:06:43.544Z,4.27
2018-05-08T06:09:11.107Z,4.77
2018-05-08T06:11:38.654Z,4.40
2018-05-08T06:14:06.343Z,4.60
2018-05-08T06:16:33.866Z,4.60
2018-05-08T06:19:01.462Z,4.53
2018-05-08T06:21:29.033Z,4.40
2018-05-08T06:38:40.512Z,3.60
2018-05-08T06:41:08.117Z,3.77
2018-05-08T06:43:35.858Z,3.00
2018-05-08T06:46:03.414Z,2.33
2018-05-08T06:48:30.989Z,2.80
2018-05-08T06:50:58.635Z,3.07
2018-05-08T06:53:26.146Z,2.50
2018-05-08T06:55:53.658Z,1.97
2018-05-08T06:58:21.334Z,2.30
2018-05-08T07:00:48.919Z,2.20
2018-05-08T07:03:16.818Z,3.30
2018-05-08T07:05:44.463Z,2.40
2018-05-08T07:08:11.973Z,2.00
2018-05-08T07:10:39.594Z,2.27
2018-05-08T07:13:07.163Z,2.03
2018-05-08T07:15:34.773Z,1.83
2018-05-08T07:18:03.368Z,2.10
2018-05-08T07:20:30.907Z,2.40
2018-05-08T07:22:58.579Z,2.00
2018-05-08T07:25:26.138Z,2.23
2018-05-08T07:27:53.668Z,2.00
2018-05-08T07:30:21.342Z,2.40
2018-05-08T07:32:48.943Z,2.57
2018-05-08T07:35:16.632Z,1.70
2018-05-08T07:37:44.259Z,1.90
2018-05-08T07:40:11.917Z,2.37
2018-05-08T07:42:39.437Z,2.17
2018-05-08T07:45:06.949Z,2.00
2018-05-08T07:47:34.484Z,1.57
2018-05-08T07:50:02.037Z,1.70
2018-05-08T07:52:29.722Z,1.80
2018-05-08T07:54:57.243Z,2.00
2018-05-08T07:57:24.913Z,1.63
2018-05-08T07:59:52.437Z,1.83
2018-05-08T08:02:19.952Z,1.43
2018-05-08T08:04:47.728Z,1.30
2018-05-08T08:07:15.608Z,1.50
2018-05-08T08:09:43.265Z,1.40
2018-05-08T08:12:10.885Z,1.13
2018-05-08T08:14:38.705Z,1.00
2018-05-08T08:17:06.224Z,1.17
2018-05-08T08:19:33.752Z,1.50
2018-05-08T08:22:01.313Z,1.45
2018-05-08T08:24:28.828Z,1.67
2018-05-08T08:26:56.360Z,1.00
2018-05-08T08:29:24.154Z,1.20
2018-05-08T08:31:51.685Z,1.30
2018-05-08T08:34:19.218Z,0.90
2018-05-08T08:36:46.815Z,1.10
2018-05-08T08:39:14.349Z,1.10
2018-05-08T08:41:41.919Z,1.02
2018-05-08T08:44:09.459Z,0.93
2018-05-08T08:46:37.053Z,1.48
2018-05-08T08:49:05.036Z,0.95
2018-05-08T08:51:32.896Z,1.10
2018-05-08T08:54:00.436Z,1.08
2018-05-08T08:56:28.386Z,1.17
2018-05-08T08:58:56.111Z,1.00
2018-05-08T09:01:23.639Z,1.15
2018-05-08T09:03:51.274Z,0.90
2018-05-08T09:06:19.959Z,0.90
2018-05-08T09:08:47.565Z,0.90
2018-05-08T09:11:15.434Z,1.05
2018-05-08T09:13:42.992Z,0.82
2018-05-08T09:16:10.655Z,0.80
2018-05-08T09:18:39.131Z,0.60
2018-05-08T09:21:06.896Z,1.02
2018-05-08T09:23:34.419Z,0.60
2018-05-08T09:26:02.028Z,0.98
2018-05-08T09:28:29.551Z,0.52
2018-05-08T09:30:57.291Z,0.70
2018-05-08T09:33:24.826Z,1.80
2018-05-08T09:35:52.442Z,0.52
2018-05-08T09:38:20.094Z,1.98
2018-05-08T09:40:47.846Z,0.88
2018-05-08T09:43:15.381Z,0.68
2018-05-08T09:45:43.021Z,0.95
2018-05-08T09:48:10.710Z,0.60
2018-05-08T09:50:38.331Z,0.60
2018-05-08T09:53:05.940Z,0.65
2018-05-08T09:55:33.466Z,0.53
2018-05-08T09:58:01.050Z,0.70
2018-05-08T10:00:28.814Z,0.83
2018-05-08T10:02:56.490Z,0.70
2018-05-08T10:05:24.116Z,0.50
2018-05-08T10:07:51.655Z,0.70
2018-05-08T10:10:19.679Z,0.80
2018-05-08T10:12:47.198Z,0.65
2018-05-08T10:15:15.320Z,0.90
2018-05-08T10:17:42.846Z,0.55
2018-05-08T10:20:10.470Z,2.75
2018-05-08T10:22:37.981Z,0.67
2018-05-08T10:25:05.520Z,0.73
2018-05-08T10:27:33.101Z,0.80
2018-05-08T10:30:00.611Z,0.75
2018-05-08T10:32:29.127Z,0.60
2018-05-08T10:34:56.650Z,0.70
2018-05-08T10:37:24.195Z,0.80
2018-05-08T10:39:51.739Z,0.70
2018-05-08T10:42:19.419Z,0.60
2018-05-08T10:44:47.064Z,0.60
2018-05-08T10:47:14.578Z,0.70
2018-05-08T10:49:42.192Z,0.40
2018-05-08T10:52:09.735Z,0.55
2018-05-08T10:54:37.326Z,0.55
2018-05-08T10:57:04.989Z,0.60
2018-05-08T10:59:32.614Z,0.57
2018-05-08T11:02:00.131Z,0.70
2018-05-08T11:04:27.651Z,0.60
2018-05-08T11:06:55.891Z,0.60
2018-05-08T11:09:23.462Z,0.60
2018-05-08T11:11:51.008Z,0.62
2018-05-08T11:14:18.799Z,0.50
2018-05-08T11:16:46.555Z,0.60
2018-05-08T11:19:14.113Z,0.35
2018-05-08T11:21:41.629Z,0.40
2018-05-08T11:24:09.411Z,0.60
2018-05-08T11:26:36.999Z,0.52
2018-05-08T11:29:04.527Z,0.40
2018-05-08T11:31:32.085Z,0.40
2018-05-08T11:33:59.824Z,0.60
2018-05-08T11:36:27.428Z,0.60
2018-05-08T11:38:54.996Z,0.55
2018-05-08T11:41:22.591Z,0.40
2018-05-08T11:43:50.237Z,0.50
2018-05-08T11:46:17.960Z,0.60
2018-05-08T11:48:45.991Z,0.70
2018-05-08T11:51:13.689Z,0.40
2018-05-08T11:53:41.937Z,0.50
2018-05-08T11:56:09.536Z,0.60
2018-05-08T11:58:37.105Z,0.57
2018-05-08T12:01:05.044Z,0.80
2018-05-08T12:03:32.561Z,0.52
2018-05-08T12:06:00.272Z,0.50
2018-05-08T12:08:27.899Z,0.75
2018-05-08T12:10:55.481Z,0.50
2018-05-08T12:13:23.163Z,0.40
2018-05-08T12:15:50.725Z,0.68
2018-05-08T12:18:18.338Z,0.50
2018-05-08T12:20:46.052Z,0.65
2018-05-08T12:23:13.762Z,0.75
2018-05-08T12:25:41.417Z,0.60
2018-05-08T12:28:09.300Z,0.40
2018-05-08T12:30:37.089Z,0.67
2018-05-08T12:33:04.696Z,0.57
2018-05-08T12:35:32.368Z,0.80
2018-05-08T12:37:59.983Z,0.63
2018-05-08T12:40:27.658Z,0.60
2018-05-08T12:42:55.192Z,0.50
2018-05-08T12:45:23.800Z,0.50
2018-05-08T12:47:51.609Z,0.95
2018-05-08T12:50:19.165Z,0.80
2018-05-08T12:52:46.737Z,0.60
2018-05-08T12:55:14.282Z,0.57
2018-05-08T12:57:41.822Z,0.68
2018-05-08T13:00:09.410Z,0.65
2018-05-08T13:02:36.928Z,0.70
2018-05-08T13:05:04.475Z,0.80
2018-05-08T13:07:32.019Z,1.08
2018-05-08T13:09:59.562Z,0.90
2018-05-08T13:12:27.078Z,0.88
2018-05-08T13:14:54.711Z,0.80
2018-05-08T13:17:22.222Z,0.80
2018-05-08T13:19:49.777Z,0.95
2018-05-08T13:22:17.591Z,0.70
2018-05-08T13:24:45.321Z,0.80
2018-05-08T13:27:12.872Z,1.07
2018-05-08T13:29:40.492Z,0.75
2018-05-08T13:32:08.083Z,0.70
2018-05-08T13:34:35.612Z,1.10
2018-05-08T13:37:03.217Z,1.30
2018-05-08T13:39:30.783Z,1.30
2018-05-08T13:41:58.586Z,1.07
2018-05-08T13:44:26.037Z,1.10
2018-05-08T13:46:53.608Z,1.23
2018-05-08T13:49:21.216Z,1.40
2018-05-08T13:51:48.741Z,1.30
2018-05-08T13:54:16.272Z,1.33
2018-05-08T13:56:43.786Z,1.60
2018-05-08T13:59:11.387Z,1.40
2018-05-08T14:01:38.950Z,1.20
2018-05-08T14:04:06.578Z,0.93
2018-05-08T14:06:34.900Z,1.30
2018-05-08T14:09:02.561Z,1.30
2018-05-08T14:11:30.286Z,1.17
2018-05-08T14:13:57.907Z,1.37
2018-05-08T14:16:25.640Z,2.20
2018-05-08T14:18:53.264Z,1.40
2018-05-08T14:21:20.823Z,1.23
2018-05-08T14:23:48.521Z,1.40
2018-05-08T14:26:16.241Z,1.10
2018-05-08T14:28:43.772Z,1.63
2018-05-08T14:31:11.312Z,1.27
2018-05-08T14:33:38.883Z,2.07
2018-05-08T14:43:27.828Z,0.90
2018-05-08T14:45:55.396Z,1.10
2018-05-08T14:48:23.250Z,1.40
2018-05-08T14:50:50.768Z,1.27
2018-05-08T14:53:18.372Z,1.30
2018-05-08T14:55:46.136Z,1.90
2018-05-08T14:58:13.667Z,1.93
2018-05-08T15:00:41.242Z,1.30
2018-05-08T15:03:08.763Z,1.60
2018-05-08T15:05:36.312Z,1.67
2018-05-08T15:08:03.858Z,1.30
2018-05-08T15:10:31.409Z,1.57
2018-05-08T15:12:59.058Z,1.60
2018-05-08T15:15:26.788Z,1.40
2018-05-08T15:17:54.423Z,1.50
2018-05-08T15:20:22.099Z,1.33
2018-05-08T15:22:49.653Z,1.47
2018-05-08T15:25:17.183Z,1.40
2018-05-08T15:27:44.944Z,2.20
2018-05-08T15:30:12.556Z,1.70
2018-05-08T15:32:40.246Z,1.90
2018-05-08T15:35:08.095Z,1.43
2018-05-08T15:37:35.681Z,1.30
2018-05-08T15:40:03.229Z,2.20
2018-05-08T15:42:30.777Z,1.73
2018-05-08T15:44:58.389Z,1.50
2018-05-08T15:47:25.927Z,1.23
2018-05-08T15:49:53.482Z,1.60
2018-05-08T15:52:21.053Z,1.40
2018-05-08T15:54:48.799Z,1.13
2018-05-08T15:57:16.334Z,1.67
2018-05-08T15:59:43.877Z,1.13
2018-05-08T16:02:11.496Z,1.40
2018-05-08T16:04:39.013Z,1.97
2018-05-08T16:07:07.658Z,1.20
2018-05-08T16:09:35.359Z,1.40
2018-05-08T16:12:03.021Z,1.60
2018-05-08T16:14:30.606Z,1.40
2018-05-08T16:16:58.323Z,1.52
2018-05-08T16:19:25.858Z,1.63
2018-05-08T16:21:53.693Z,1.50
2018-05-08T16:24:21.378Z,1.50
2018-05-08T16:26:49.076Z,1.50
2018-05-08T16:29:16.978Z,1.65
2018-05-08T16:34:11.699Z,1.50
2018-05-08T16:36:39.217Z,1.40
2018-05-08T16:39:06.759Z,1.50
2018-05-08T16:41:34.531Z,1.40
2018-05-08T16:48:56.389Z,1.80
2018-05-08T16:51:23.917Z,1.60
2018-05-08T16:53:51.589Z,1.57
2018-05-08T16:56:19.093Z,1.20
2018-05-08T17:06:08.024Z,2.90
2018-05-08T17:08:35.547Z,1.50
2018-05-08T17:13:30.247Z,1.60
2018-05-08T17:18:24.919Z,1.70
2018-05-08T17:30:41.207Z,2.20
2018-05-08T17:40:30.467Z,1.63
2018-05-08T17:42:58.020Z,1.40
2018-05-08T17:45:25.545Z,1.60
2018-05-08T17:47:53.090Z,1.70
2018-05-08T17:50:20.643Z,1.90
2018-05-08T17:52:48.262Z,1.90
2018-05-08T17:55:16.600Z,1.90
2018-05-08T17:57:44.159Z,2.43
2018-05-08T18:00:11.958Z,1.77
2018-05-08T18:02:39.732Z,1.73
2018-05-08T18:05:07.273Z,1.63
2018-05-08T18:07:34.962Z,3.70
2018-05-08T18:14:56.695Z,2.70
2018-05-08T18:19:51.471Z,3.93
2018-05-08T18:22:19.070Z,2.40
2018-05-08T18:24:46.664Z,2.57
2018-05-08T19:26:23.683Z,2.17
2018-05-08T19:28:56.874Z,2.23
2018-05-08T19:31:24.400Z,2.33
2018-05-08T19:33:52.056Z,1.80
2018-05-08T19:36:25.320Z,2.10
2018-05-08T19:38:53.034Z,1.63
2018-05-08T19:41:20.807Z,2.20
2018-05-08T19:51:09.788Z,1.70
2018-05-08T21:24:21.630Z,2.77
2018-05-08T21:26:49.303Z,2.25
2018-05-08T21:32:19.985Z,2.33
2018-05-08T21:34:47.633Z,2.30
2018-05-08T22:33:39.915Z,2.80
2018-05-08T22:36:07.500Z,2.90
2018-05-08T22:38:35.097Z,2.70
2018-05-08T22:58:29.525Z,3.50
2018-05-08T23:00:57.163Z,3.35
